sensor_id;sensor_type;location;lat;lon;timestamp;P1;durP1;ratioP1;P2;durP2;ratioP2
20318;SDS011;10317;47.254;11.314;2023-08-01T00:00:50;3.72;;;3.10;;
20318;SDS011;10317;47.254;11.314;2023-08-01T00:03:16;4.90;;;3.67;;
20318;SDS011;10317;47.254;11.314;2023-08-01T00:05:42;5.55;;;3.75;;
20318;SDS011;10317;47.254;11.314;2023-08-01T00:08:10;6.85;;;3.38;;
20318;SDS011;10317;47.254;11.314;2023-08-01T00:10:40;6.22;;;3.75;;
20318;SDS011;10317;47.254;11.314;2023-08-01T00:13:06;5.47;;;3.30;;
20318;SDS011;10317;47.254;11.314;2023-08-01T00:15:33;4.50;;;3.38;;
20318;SDS011;10317;47.254;11.314;2023-08-01T00:17:59;5.05;;;3.00;;
20318;SDS011;10317;47.254;11.314;2023-08-01T00:20:24;4.40;;;3.17;;
20318;SDS011;10317;47.254;11.314;2023-08-01T00:22:50;4.68;;;3.10;;
20318;SDS011;10317;47.254;11.314;2023-08-01T00:25:16;3.45;;;3.15;;
20318;SDS011;10317;47.254;11.314;2023-08-01T00:27:42;3.65;;;2.80;;
20318;SDS011;10317;47.254;11.314;2023-08-01T00:30:08;6.10;;;3.53;;
20318;SDS011;10317;47.254;11.314;2023-08-01T00:32:34;5.45;;;3.40;;
20318;SDS011;10317;47.254;11.314;2023-08-01T00:35:01;4.88;;;2.85;;
20318;SDS011;10317;47.254;11.314;2023-08-01T00:37:26;7.78;;;3.97;;
20318;SDS011;10317;47.254;11.314;2023-08-01T00:39:52;3.72;;;3.28;;
20318;SDS011;10317;47.254;11.314;2023-08-01T00:42:18;3.95;;;3.55;;
20318;SDS011;10317;47.254;11.314;2023-08-01T00:44:43;6.15;;;3.42;;
20318;SDS011;10317;47.254;11.314;2023-08-01T00:47:09;3.63;;;3.33;;
20318;SDS011;10317;47.254;11.314;2023-08-01T00:49:35;6.07;;;3.95;;
20318;SDS011;10317;47.254;11.314;2023-08-01T00:52:01;4.03;;;3.72;;
20318;SDS011;10317;47.254;11.314;2023-08-01T00:54:27;5.47;;;3.67;;
20318;SDS011;10317;47.254;11.314;2023-08-01T00:56:55;5.07;;;2.92;;
20318;SDS011;10317;47.254;11.314;2023-08-01T00:59:21;3.97;;;3.60;;
20318;SDS011;10317;47.254;11.314;2023-08-01T01:01:46;3.60;;;3.28;;
20318;SDS011;10317;47.254;11.314;2023-08-01T01:04:12;4.88;;;3.78;;
20318;SDS011;10317;47.254;11.314;2023-08-01T01:06:43;7.03;;;4.28;;
20318;SDS011;10317;47.254;11.314;2023-08-01T01:09:16;6.43;;;4.00;;
20318;SDS011;10317;47.254;11.314;2023-08-01T01:11:43;5.38;;;3.63;;
20318;SDS011;10317;47.254;11.314;2023-08-01T01:14:10;4.97;;;3.35;;
20318;SDS011;10317;47.254;11.314;2023-08-01T01:16:36;4.22;;;3.35;;
20318;SDS011;10317;47.254;11.314;2023-08-01T01:19:05;6.20;;;3.65;;
20318;SDS011;10317;47.254;11.314;2023-08-01T01:24:27;6.07;;;3.60;;
20318;SDS011;10317;47.254;11.314;2023-08-01T01:26:54;8.27;;;4.95;;
20318;SDS011;10317;47.254;11.314;2023-08-01T01:29:21;6.07;;;3.47;;
20318;SDS011;10317;47.254;11.314;2023-08-01T01:31:48;4.45;;;4.05;;
20318;SDS011;10317;47.254;11.314;2023-08-01T01:34:18;5.13;;;4.00;;
20318;SDS011;10317;47.254;11.314;2023-08-01T01:36:43;4.97;;;3.60;;
20318;SDS011;10317;47.254;11.314;2023-08-01T01:39:09;5.65;;;4.43;;
20318;SDS011;10317;47.254;11.314;2023-08-01T01:41:35;8.82;;;5.35;;
20318;SDS011;10317;47.254;11.314;2023-08-01T01:44:01;8.52;;;4.00;;
20318;SDS011;10317;47.254;11.314;2023-08-01T01:46:26;7.43;;;4.22;;
20318;SDS011;10317;47.254;11.314;2023-08-01T01:48:52;4.13;;;3.55;;
20318;SDS011;10317;47.254;11.314;2023-08-01T01:51:19;4.50;;;3.78;;
20318;SDS011;10317;47.254;11.314;2023-08-01T01:53:46;9.18;;;4.50;;
20318;SDS011;10317;47.254;11.314;2023-08-01T01:56:12;4.93;;;4.10;;
20318;SDS011;10317;47.254;11.314;2023-08-01T01:58:37;15.73;;;5.00;;
20318;SDS011;10317;47.254;11.314;2023-08-01T02:01:03;5.45;;;4.47;;
20318;SDS011;10317;47.254;11.314;2023-08-01T02:03:29;5.15;;;3.38;;
20318;SDS011;10317;47.254;11.314;2023-08-01T02:05:54;3.85;;;3.50;;
20318;SDS011;10317;47.254;11.314;2023-08-01T02:08:20;18.00;;;4.85;;
20318;SDS011;10317;47.254;11.314;2023-08-01T02:10:46;4.70;;;3.92;;
20318;SDS011;10317;47.254;11.314;2023-08-01T02:13:12;6.03;;;4.03;;
20318;SDS011;10317;47.254;11.314;2023-08-01T02:15:38;4.20;;;3.22;;
20318;SDS011;10317;47.254;11.314;2023-08-01T02:18:04;3.80;;;3.38;;
20318;SDS011;10317;47.254;11.314;2023-08-01T02:20:29;4.03;;;3.60;;
20318;SDS011;10317;47.254;11.314;2023-08-01T02:22:55;3.70;;;3.40;;
20318;SDS011;10317;47.254;11.314;2023-08-01T02:25:21;4.38;;;3.72;;
20318;SDS011;10317;47.254;11.314;2023-08-01T02:27:46;3.90;;;3.53;;
20318;SDS011;10317;47.254;11.314;2023-08-01T02:30:12;3.88;;;2.90;;
20318;SDS011;10317;47.254;11.314;2023-08-01T02:32:38;7.00;;;4.03;;
20318;SDS011;10317;47.254;11.314;2023-08-01T02:35:03;5.70;;;3.88;;
20318;SDS011;10317;47.254;11.314;2023-08-01T02:37:29;3.97;;;3.67;;
20318;SDS011;10317;47.254;11.314;2023-08-01T02:39:55;5.40;;;3.72;;
20318;SDS011;10317;47.254;11.314;2023-08-01T02:42:21;3.78;;;3.40;;
20318;SDS011;10317;47.254;11.314;2023-08-01T02:44:46;4.05;;;3.65;;
20318;SDS011;10317;47.254;11.314;2023-08-01T02:47:12;10.45;;;3.80;;
20318;SDS011;10317;47.254;11.314;2023-08-01T02:49:38;6.68;;;3.65;;
20318;SDS011;10317;47.254;11.314;2023-08-01T02:52:03;5.10;;;3.80;;
20318;SDS011;10317;47.254;11.314;2023-08-01T02:54:29;4.15;;;3.65;;
20318;SDS011;10317;47.254;11.314;2023-08-01T02:56:55;8.27;;;4.60;;
20318;SDS011;10317;47.254;11.314;2023-08-01T02:59:20;4.72;;;3.50;;
20318;SDS011;10317;47.254;11.314;2023-08-01T03:01:46;5.38;;;3.80;;
20318;SDS011;10317;47.254;11.314;2023-08-01T03:04:12;5.57;;;3.83;;
20318;SDS011;10317;47.254;11.314;2023-08-01T03:06:38;4.70;;;3.58;;
20318;SDS011;10317;47.254;11.314;2023-08-01T03:09:03;3.80;;;3.25;;
20318;SDS011;10317;47.254;11.314;2023-08-01T03:11:33;4.13;;;3.72;;
20318;SDS011;10317;47.254;11.314;2023-08-01T03:14:00;4.20;;;3.80;;
20318;SDS011;10317;47.254;11.314;2023-08-01T03:16:26;6.55;;;3.50;;
20318;SDS011;10317;47.254;11.314;2023-08-01T03:18:52;4.38;;;3.97;;
20318;SDS011;10317;47.254;11.314;2023-08-01T03:21:17;3.30;;;3.00;;
20318;SDS011;10317;47.254;11.314;2023-08-01T03:23:43;5.18;;;3.13;;
20318;SDS011;10317;47.254;11.314;2023-08-01T03:26:09;4.22;;;3.80;;
20318;SDS011;10317;47.254;11.314;2023-08-01T03:28:35;3.83;;;3.25;;
20318;SDS011;10317;47.254;11.314;2023-08-01T03:31:01;4.57;;;3.47;;
20318;SDS011;10317;47.254;11.314;2023-08-01T03:33:27;5.45;;;4.15;;
20318;SDS011;10317;47.254;11.314;2023-08-01T03:35:53;5.03;;;4.32;;
20318;SDS011;10317;47.254;11.314;2023-08-01T03:38:18;7.03;;;3.30;;
20318;SDS011;10317;47.254;11.314;2023-08-01T03:40:44;5.63;;;3.75;;
20318;SDS011;10317;47.254;11.314;2023-08-01T03:43:10;5.90;;;3.88;;
20318;SDS011;10317;47.254;11.314;2023-08-01T03:45:35;5.15;;;3.97;;
20318;SDS011;10317;47.254;11.314;2023-08-01T03:48:01;4.25;;;3.88;;
20318;SDS011;10317;47.254;11.314;2023-08-01T03:50:27;12.32;;;4.90;;
20318;SDS011;10317;47.254;11.314;2023-08-01T03:52:52;9.20;;;4.10;;
20318;SDS011;10317;47.254;11.314;2023-08-01T03:55:18;5.57;;;3.35;;
20318;SDS011;10317;47.254;11.314;2023-08-01T03:57:44;6.32;;;3.83;;
20318;SDS011;10317;47.254;11.314;2023-08-01T04:00:09;4.85;;;3.65;;
20318;SDS011;10317;47.254;11.314;2023-08-01T04:02:41;4.03;;;3.63;;
20318;SDS011;10317;47.254;11.314;2023-08-01T04:05:08;6.85;;;4.68;;
20318;SDS011;10317;47.254;11.314;2023-08-01T04:07:37;7.53;;;4.22;;
20318;SDS011;10317;47.254;11.314;2023-08-01T04:10:04;5.65;;;4.38;;
20318;SDS011;10317;47.254;11.314;2023-08-01T04:12:32;5.60;;;3.60;;
20318;SDS011;10317;47.254;11.314;2023-08-01T04:14:58;5.35;;;3.90;;
20318;SDS011;10317;47.254;11.314;2023-08-01T04:17:24;4.75;;;3.60;;
20318;SDS011;10317;47.254;11.314;2023-08-01T04:19:50;5.38;;;4.55;;
20318;SDS011;10317;47.254;11.314;2023-08-01T04:22:16;4.72;;;4.00;;
20318;SDS011;10317;47.254;11.314;2023-08-01T04:24:41;5.57;;;3.95;;
20318;SDS011;10317;47.254;11.314;2023-08-01T04:27:07;4.70;;;3.65;;
20318;SDS011;10317;47.254;11.314;2023-08-01T04:29:33;5.60;;;3.80;;
20318;SDS011;10317;47.254;11.314;2023-08-01T04:31:59;5.90;;;3.78;;
20318;SDS011;10317;47.254;11.314;2023-08-01T04:34:25;12.77;;;4.38;;
20318;SDS011;10317;47.254;11.314;2023-08-01T04:36:50;5.15;;;3.65;;
20318;SDS011;10317;47.254;11.314;2023-08-01T04:39:16;7.10;;;3.90;;
20318;SDS011;10317;47.254;11.314;2023-08-01T04:41:42;6.45;;;4.25;;
20318;SDS011;10317;47.254;11.314;2023-08-01T04:44:08;7.07;;;4.10;;
20318;SDS011;10317;47.254;11.314;2023-08-01T04:46:33;5.13;;;3.47;;
20318;SDS011;10317;47.254;11.314;2023-08-01T04:48:59;8.10;;;4.15;;
20318;SDS011;10317;47.254;11.314;2023-08-01T04:51:25;5.45;;;4.18;;
20318;SDS011;10317;47.254;11.314;2023-08-01T04:53:51;5.78;;;3.97;;
20318;SDS011;10317;47.254;11.314;2023-08-01T04:56:16;4.07;;;3.67;;
20318;SDS011;10317;47.254;11.314;2023-08-01T04:58:42;6.10;;;3.78;;
20318;SDS011;10317;47.254;11.314;2023-08-01T05:01:08;7.00;;;3.45;;
20318;SDS011;10317;47.254;11.314;2023-08-01T05:03:33;5.05;;;3.15;;
20318;SDS011;10317;47.254;11.314;2023-08-01T05:05:59;7.78;;;3.63;;
20318;SDS011;10317;47.254;11.314;2023-08-01T05:08:25;5.20;;;4.25;;
20318;SDS011;10317;47.254;11.314;2023-08-01T05:10:50;10.75;;;3.97;;
20318;SDS011;10317;47.254;11.314;2023-08-01T05:13:16;4.60;;;3.90;;
20318;SDS011;10317;47.254;11.314;2023-08-01T05:15:45;4.47;;;3.83;;
20318;SDS011;10317;47.254;11.314;2023-08-01T05:18:15;3.42;;;3.17;;
20318;SDS011;10317;47.254;11.314;2023-08-01T05:20:42;4.40;;;4.00;;
20318;SDS011;10317;47.254;11.314;2023-08-01T05:23:08;6.22;;;4.03;;
20318;SDS011;10317;47.254;11.314;2023-08-01T05:25:34;7.53;;;4.65;;
20318;SDS011;10317;47.254;11.314;2023-08-01T05:27:59;7.95;;;4.60;;
20318;SDS011;10317;47.254;11.314;2023-08-01T05:30:25;6.28;;;4.10;;
20318;SDS011;10317;47.254;11.314;2023-08-01T05:32:51;7.65;;;3.95;;
20318;SDS011;10317;47.254;11.314;2023-08-01T05:35:18;4.60;;;3.85;;
20318;SDS011;10317;47.254;11.314;2023-08-01T05:37:45;6.07;;;3.80;;
20318;SDS011;10317;47.254;11.314;2023-08-01T05:40:11;5.20;;;4.10;;
20318;SDS011;10317;47.254;11.314;2023-08-01T05:42:37;7.32;;;4.43;;
20318;SDS011;10317;47.254;11.314;2023-08-01T05:45:02;6.43;;;5.15;;
20318;SDS011;10317;47.254;11.314;2023-08-01T05:47:29;5.20;;;4.47;;
20318;SDS011;10317;47.254;11.314;2023-08-01T05:49:55;7.47;;;4.70;;
20318;SDS011;10317;47.254;11.314;2023-08-01T05:52:20;4.93;;;4.45;;
20318;SDS011;10317;47.254;11.314;2023-08-01T05:54:46;8.95;;;3.90;;
20318;SDS011;10317;47.254;11.314;2023-08-01T05:57:12;3.97;;;3.47;;
20318;SDS011;10317;47.254;11.314;2023-08-01T05:59:37;5.65;;;4.47;;
20318;SDS011;10317;47.254;11.314;2023-08-01T06:02:03;7.10;;;4.22;;
20318;SDS011;10317;47.254;11.314;2023-08-01T06:04:29;9.77;;;4.72;;
20318;SDS011;10317;47.254;11.314;2023-08-01T06:06:55;8.65;;;4.18;;
20318;SDS011;10317;47.254;11.314;2023-08-01T06:09:21;5.03;;;4.50;;
20318;SDS011;10317;47.254;11.314;2023-08-01T06:11:46;4.95;;;4.43;;
20318;SDS011;10317;47.254;11.314;2023-08-01T06:14:12;7.57;;;4.43;;
20318;SDS011;10317;47.254;11.314;2023-08-01T06:16:38;6.35;;;4.53;;
20318;SDS011;10317;47.254;11.314;2023-08-01T06:19:19;7.38;;;4.50;;
20318;SDS011;10317;47.254;11.314;2023-08-01T06:21:45;5.65;;;4.30;;
20318;SDS011;10317;47.254;11.314;2023-08-01T06:24:10;6.63;;;5.22;;
20318;SDS011;10317;47.254;11.314;2023-08-01T06:26:36;6.93;;;4.88;;
20318;SDS011;10317;47.254;11.314;2023-08-01T06:29:02;7.35;;;5.40;;
20318;SDS011;10317;47.254;11.314;2023-08-01T06:31:27;8.00;;;4.32;;
20318;SDS011;10317;47.254;11.314;2023-08-01T06:33:53;6.97;;;3.58;;
20318;SDS011;10317;47.254;11.314;2023-08-01T06:36:18;5.13;;;4.50;;
20318;SDS011;10317;47.254;11.314;2023-08-01T06:38:44;5.05;;;4.03;;
20318;SDS011;10317;47.254;11.314;2023-08-01T06:41:11;6.45;;;5.47;;
20318;SDS011;10317;47.254;11.314;2023-08-01T06:43:36;7.03;;;5.70;;
20318;SDS011;10317;47.254;11.314;2023-08-01T06:46:03;7.38;;;5.18;;
20318;SDS011;10317;47.254;11.314;2023-08-01T06:48:29;6.22;;;4.40;;
20318;SDS011;10317;47.254;11.314;2023-08-01T06:50:56;9.75;;;5.45;;
20318;SDS011;10317;47.254;11.314;2023-08-01T06:53:21;6.30;;;5.68;;
20318;SDS011;10317;47.254;11.314;2023-08-01T06:55:47;7.57;;;5.75;;
20318;SDS011;10317;47.254;11.314;2023-08-01T06:58:13;8.80;;;5.18;;
20318;SDS011;10317;47.254;11.314;2023-08-01T07:00:38;7.40;;;5.32;;
20318;SDS011;10317;47.254;11.314;2023-08-01T07:03:04;7.03;;;5.13;;
20318;SDS011;10317;47.254;11.314;2023-08-01T07:05:29;11.35;;;4.97;;
20318;SDS011;10317;47.254;11.314;2023-08-01T07:07:55;8.75;;;5.25;;
20318;SDS011;10317;47.254;11.314;2023-08-01T07:10:23;5.05;;;4.28;;
20318;SDS011;10317;47.254;11.314;2023-08-01T07:12:48;4.78;;;4.03;;
20318;SDS011;10317;47.254;11.314;2023-08-01T07:15:14;5.97;;;4.60;;
20318;SDS011;10317;47.254;11.314;2023-08-01T07:17:40;4.95;;;4.25;;
20318;SDS011;10317;47.254;11.314;2023-08-01T07:20:05;9.25;;;5.20;;
20318;SDS011;10317;47.254;11.314;2023-08-01T07:22:31;7.82;;;5.55;;
20318;SDS011;10317;47.254;11.314;2023-08-01T07:24:57;5.43;;;4.85;;
20318;SDS011;10317;47.254;11.314;2023-08-01T07:27:23;5.13;;;4.55;;
20318;SDS011;10317;47.254;11.314;2023-08-01T07:29:48;7.15;;;5.05;;
20318;SDS011;10317;47.254;11.314;2023-08-01T07:32:14;7.07;;;4.88;;
20318;SDS011;10317;47.254;11.314;2023-08-01T07:34:43;7.75;;;5.55;;
20318;SDS011;10317;47.254;11.314;2023-08-01T07:37:09;9.10;;;4.88;;
20318;SDS011;10317;47.254;11.314;2023-08-01T07:39:38;6.70;;;5.50;;
20318;SDS011;10317;47.254;11.314;2023-08-01T07:42:04;8.63;;;5.82;;
20318;SDS011;10317;47.254;11.314;2023-08-01T07:44:30;9.95;;;5.25;;
20318;SDS011;10317;47.254;11.314;2023-08-01T07:46:56;9.60;;;5.10;;
20318;SDS011;10317;47.254;11.314;2023-08-01T07:49:22;10.48;;;5.60;;
20318;SDS011;10317;47.254;11.314;2023-08-01T07:51:48;6.03;;;4.97;;
20318;SDS011;10317;47.254;11.314;2023-08-01T07:54:14;5.53;;;4.47;;
20318;SDS011;10317;47.254;11.314;2023-08-01T07:56:39;6.88;;;4.65;;
20318;SDS011;10317;47.254;11.314;2023-08-01T07:59:05;7.30;;;4.35;;
20318;SDS011;10317;47.254;11.314;2023-08-01T08:01:31;7.22;;;5.38;;
20318;SDS011;10317;47.254;11.314;2023-08-01T08:03:56;5.75;;;4.55;;
20318;SDS011;10317;47.254;11.314;2023-08-01T08:06:22;6.40;;;4.45;;
20318;SDS011;10317;47.254;11.314;2023-08-01T08:08:49;6.38;;;5.38;;
20318;SDS011;10317;47.254;11.314;2023-08-01T08:11:15;8.35;;;5.43;;
20318;SDS011;10317;47.254;11.314;2023-08-01T08:13:41;9.68;;;6.35;;
20318;SDS011;10317;47.254;11.314;2023-08-01T08:16:07;7.47;;;6.57;;
20318;SDS011;10317;47.254;11.314;2023-08-01T08:18:32;8.60;;;5.75;;
20318;SDS011;10317;47.254;11.314;2023-08-01T08:20:58;7.90;;;5.32;;
20318;SDS011;10317;47.254;11.314;2023-08-01T08:23:26;7.93;;;5.88;;
20318;SDS011;10317;47.254;11.314;2023-08-01T19:59:14;2.58;;;1.30;;
20318;SDS011;10317;47.254;11.314;2023-08-01T20:01:39;5.18;;;2.88;;
20318;SDS011;10317;47.254;11.314;2023-08-01T20:04:07;4.15;;;1.70;;
20318;SDS011;10317;47.254;11.314;2023-08-01T20:06:33;1.63;;;1.52;;
20318;SDS011;10317;47.254;11.314;2023-08-01T20:08:58;2.08;;;1.52;;
20318;SDS011;10317;47.254;11.314;2023-08-01T20:11:24;2.72;;;1.85;;
20318;SDS011;10317;47.254;11.314;2023-08-01T20:13:50;2.50;;;1.58;;
20318;SDS011;10317;47.254;11.314;2023-08-01T20:16:16;2.75;;;1.80;;
20318;SDS011;10317;47.254;11.314;2023-08-01T20:18:41;1.75;;;1.65;;
20318;SDS011;10317;47.254;11.314;2023-08-01T20:21:07;1.67;;;1.58;;
20318;SDS011;10317;47.254;11.314;2023-08-01T20:23:33;3.30;;;1.83;;
20318;SDS011;10317;47.254;11.314;2023-08-01T20:25:58;1.58;;;1.48;;
20318;SDS011;10317;47.254;11.314;2023-08-01T20:28:24;1.70;;;1.60;;
20318;SDS011;10317;47.254;11.314;2023-08-01T20:30:50;2.03;;;1.55;;
20318;SDS011;10317;47.254;11.314;2023-08-01T20:33:16;1.55;;;1.45;;
20318;SDS011;10317;47.254;11.314;2023-08-01T20:35:42;1.95;;;1.85;;
20318;SDS011;10317;47.254;11.314;2023-08-01T20:38:08;1.85;;;1.73;;
20318;SDS011;10317;47.254;11.314;2023-08-01T20:40:34;1.80;;;1.70;;
20318;SDS011;10317;47.254;11.314;2023-08-01T20:43:03;2.08;;;1.70;;
20318;SDS011;10317;47.254;11.314;2023-08-01T20:45:28;1.67;;;1.58;;
20318;SDS011;10317;47.254;11.314;2023-08-01T20:47:54;1.38;;;1.33;;
20318;SDS011;10317;47.254;11.314;2023-08-01T20:50:20;2.95;;;2.75;;
20318;SDS011;10317;47.254;11.314;2023-08-01T20:52:46;1.95;;;1.85;;
20318;SDS011;10317;47.254;11.314;2023-08-01T20:55:11;1.50;;;1.40;;
20318;SDS011;10317;47.254;11.314;2023-08-01T20:57:37;1.67;;;1.58;;
20318;SDS011;10317;47.254;11.314;2023-08-01T21:00:03;4.32;;;2.85;;
20318;SDS011;10317;47.254;11.314;2023-08-01T21:02:30;2.38;;;1.55;;
20318;SDS011;10317;47.254;11.314;2023-08-01T21:04:56;3.63;;;1.30;;
20318;SDS011;10317;47.254;11.314;2023-08-01T21:07:22;1.70;;;1.60;;
20318;SDS011;10317;47.254;11.314;2023-08-01T21:09:48;1.48;;;1.30;;
20318;SDS011;10317;47.254;11.314;2023-08-01T21:12:14;3.25;;;1.60;;
20318;SDS011;10317;47.254;11.314;2023-08-01T21:14:39;2.42;;;1.50;;
20318;SDS011;10317;47.254;11.314;2023-08-01T21:17:05;2.33;;;2.15;;
20318;SDS011;10317;47.254;11.314;2023-08-01T21:19:31;5.53;;;1.60;;
20318;SDS011;10317;47.254;11.314;2023-08-01T21:21:56;2.33;;;1.77;;
20318;SDS011;10317;47.254;11.314;2023-08-01T21:24:22;1.52;;;1.42;;
20318;SDS011;10317;47.254;11.314;2023-08-01T21:26:47;1.45;;;1.35;;
20318;SDS011;10317;47.254;11.314;2023-08-01T21:29:13;2.08;;;1.77;;
20318;SDS011;10317;47.254;11.314;2023-08-01T21:31:39;2.45;;;1.63;;
20318;SDS011;10317;47.254;11.314;2023-08-01T21:34:04;4.40;;;1.65;;
20318;SDS011;10317;47.254;11.314;2023-08-01T21:36:30;2.47;;;1.60;;
20318;SDS011;10317;47.254;11.314;2023-08-01T21:38:56;2.97;;;1.40;;
20318;SDS011;10317;47.254;11.314;2023-08-01T21:41:21;2.20;;;1.63;;
20318;SDS011;10317;47.254;11.314;2023-08-01T21:43:47;2.42;;;1.80;;
20318;SDS011;10317;47.254;11.314;2023-08-01T21:46:13;1.65;;;1.55;;
20318;SDS011;10317;47.254;11.314;2023-08-01T21:48:38;2.15;;;1.92;;
20318;SDS011;10317;47.254;11.314;2023-08-01T21:51:04;1.90;;;1.80;;
20318;SDS011;10317;47.254;11.314;2023-08-01T21:53:30;2.15;;;1.70;;
20318;SDS011;10317;47.254;11.314;2023-08-01T21:55:56;6.70;;;1.60;;
20318;SDS011;10317;47.254;11.314;2023-08-01T21:58:22;1.38;;;1.27;;
20318;SDS011;10317;47.254;11.314;2023-08-01T22:00:48;3.22;;;1.83;;
20318;SDS011;10317;47.254;11.314;2023-08-01T22:03:14;1.73;;;1.63;;
20318;SDS011;10317;47.254;11.314;2023-08-01T22:05:40;1.73;;;1.60;;
20318;SDS011;10317;47.254;11.314;2023-08-01T22:08:06;5.95;;;1.75;;
20318;SDS011;10317;47.254;11.314;2023-08-01T22:10:33;1.95;;;1.50;;
20318;SDS011;10317;47.254;11.314;2023-08-01T22:12:59;1.65;;;1.63;;
20318;SDS011;10317;47.254;11.314;2023-08-01T22:15:26;2.55;;;1.60;;
20318;SDS011;10317;47.254;11.314;2023-08-01T22:17:52;1.30;;;1.20;;
20318;SDS011;10317;47.254;11.314;2023-08-01T22:20:18;4.68;;;1.55;;
20318;SDS011;10317;47.254;11.314;2023-08-01T22:22:44;1.33;;;1.30;;
20318;SDS011;10317;47.254;11.314;2023-08-01T22:25:10;1.63;;;1.52;;
20318;SDS011;10317;47.254;11.314;2023-08-01T22:27:36;2.53;;;1.20;;
20318;SDS011;10317;47.254;11.314;2023-08-01T22:30:03;1.90;;;1.80;;
20318;SDS011;10317;47.254;11.314;2023-08-01T22:32:29;1.60;;;1.50;;
20318;SDS011;10317;47.254;11.314;2023-08-01T22:34:54;1.40;;;1.30;;
20318;SDS011;10317;47.254;11.314;2023-08-01T22:37:21;1.95;;;1.67;;
20318;SDS011;10317;47.254;11.314;2023-08-01T22:39:47;4.35;;;2.28;;
20318;SDS011;10317;47.254;11.314;2023-08-01T22:42:13;1.92;;;1.80;;
20318;SDS011;10317;47.254;11.314;2023-08-01T22:44:38;2.22;;;1.65;;
20318;SDS011;10317;47.254;11.314;2023-08-01T22:47:04;2.08;;;1.80;;
20318;SDS011;10317;47.254;11.314;2023-08-01T22:49:30;1.88;;;1.60;;
20318;SDS011;10317;47.254;11.314;2023-08-01T22:51:56;1.55;;;1.50;;
20318;SDS011;10317;47.254;11.314;2023-08-01T22:54:22;2.45;;;1.63;;
20318;SDS011;10317;47.254;11.314;2023-08-01T22:56:49;1.70;;;1.60;;
20318;SDS011;10317;47.254;11.314;2023-08-01T22:59:15;1.90;;;1.70;;
20318;SDS011;10317;47.254;11.314;2023-08-01T23:01:41;5.28;;;1.70;;
20318;SDS011;10317;47.254;11.314;2023-08-01T23:04:06;1.70;;;1.60;;
20318;SDS011;10317;47.254;11.314;2023-08-01T23:06:33;1.77;;;1.60;;
20318;SDS011;10317;47.254;11.314;2023-08-01T23:08:58;3.30;;;1.35;;
20318;SDS011;10317;47.254;11.314;2023-08-01T23:11:24;1.30;;;1.20;;
20318;SDS011;10317;47.254;11.314;2023-08-01T23:13:53;2.90;;;1.38;;
20318;SDS011;10317;47.254;11.314;2023-08-01T23:16:19;1.40;;;1.30;;
20318;SDS011;10317;47.254;11.314;2023-08-01T23:18:45;4.10;;;1.80;;
20318;SDS011;10317;47.254;11.314;2023-08-01T23:21:10;5.32;;;1.55;;
20318;SDS011;10317;47.254;11.314;2023-08-01T23:23:36;1.60;;;1.50;;
20318;SDS011;10317;47.254;11.314;2023-08-01T23:28:31;1.65;;;1.58;;
20318;SDS011;10317;47.254;11.314;2023-08-01T23:30:58;1.65;;;1.42;;
20318;SDS011;10317;47.254;11.314;2023-08-01T23:33:24;4.05;;;1.45;;
20318;SDS011;10317;47.254;11.314;2023-08-01T23:35:50;1.60;;;1.50;;
20318;SDS011;10317;47.254;11.314;2023-08-01T23:38:17;2.33;;;1.50;;
20318;SDS011;10317;47.254;11.314;2023-08-01T23:40:45;1.25;;;1.23;;
20318;SDS011;10317;47.254;11.314;2023-08-01T23:43:11;1.88;;;1.20;;
20318;SDS011;10317;47.254;11.314;2023-08-01T23:45:44;1.30;;;1.27;;
20318;SDS011;10317;47.254;11.314;2023-08-01T23:48:18;3.20;;;1.67;;
20318;SDS011;10317;47.254;11.314;2023-08-01T23:50:44;3.38;;;1.80;;
20318;SDS011;10317;47.254;11.314;2023-08-01T23:53:12;2.53;;;1.40;;
20318;SDS011;10317;47.254;11.314;2023-08-01T23:55:38;3.42;;;1.90;;
20318;SDS011;10317;47.254;11.314;2023-08-01T23:58:04;3.28;;;1.60;;
